createdAt,value
2019-02-15T00:02:04.770Z,5.73
2019-02-15T00:04:54.656Z,3.03
2019-02-15T00:07:45.621Z,2.83
2019-02-15T00:10:35.503Z,2.47
2019-02-15T00:13:42.026Z,2.97
2019-02-15T00:16:31.713Z,2.77
2019-02-15T00:19:27.590Z,2.90
2019-02-15T00:22:17.516Z,2.60
2019-02-15T00:25:06.712Z,2.77
2019-02-15T00:27:56.555Z,3.30
2019-02-15T00:30:45.917Z,2.70
2019-02-15T00:33:35.847Z,3.17
2019-02-15T00:36:25.349Z,2.40
2019-02-15T00:39:15.014Z,3.20
2019-02-15T00:42:04.471Z,3.20
2019-02-15T00:44:54.122Z,3.27
2019-02-15T00:47:48.597Z,4.50
2019-02-15T00:51:00.187Z,5.80
2019-02-15T00:54:03.814Z,6.03
2019-02-15T00:57:02.484Z,5.37
2019-02-15T01:00:11.184Z,6.87
2019-02-15T01:03:18.151Z,4.97
2019-02-15T01:06:35.836Z,4.57
2019-02-15T01:09:43.854Z,3.70
2019-02-15T01:12:58.006Z,3.47
2019-02-15T01:15:47.489Z,3.10
2019-02-15T01:18:37.662Z,3.80
2019-02-15T01:21:27.035Z,3.00
2019-02-15T01:24:16.303Z,3.13
2019-02-15T01:27:17.689Z,3.50
2019-02-15T01:30:26.449Z,2.87
2019-02-15T01:33:32.950Z,4.00
2019-02-15T01:36:50.353Z,3.60
2019-02-15T01:39:57.306Z,4.33
2019-02-15T01:42:59.607Z,4.83
2019-02-15T01:45:54.845Z,3.33
2019-02-15T01:48:44.245Z,5.53
2019-02-15T01:51:33.619Z,4.90
2019-02-15T01:54:22.920Z,3.20
2019-02-15T01:57:14.735Z,3.80
2019-02-15T02:00:04.195Z,4.20
2019-02-15T02:02:53.697Z,6.57
2019-02-15T02:05:43.137Z,4.87
2019-02-15T02:08:33.315Z,3.37
2019-02-15T02:11:22.681Z,2.73
2019-02-15T02:14:12.487Z,2.80
2019-02-15T02:17:01.794Z,4.90
2019-02-15T02:19:51.544Z,4.43
2019-02-15T02:22:40.798Z,4.27
2019-02-15T02:25:30.641Z,2.93
2019-02-15T02:28:20.160Z,12.93
2019-02-15T02:31:09.389Z,32.00
2019-02-15T02:34:01.457Z,22.67
2019-02-15T02:36:55.237Z,19.93
2019-02-15T02:39:44.543Z,8.80
2019-02-15T02:42:33.768Z,4.50
2019-02-15T02:45:23.288Z,4.30
2019-02-15T02:48:12.782Z,6.00
2019-02-15T02:51:03.014Z,3.10
2019-02-15T02:53:52.418Z,3.30
2019-02-15T02:56:41.616Z,3.07
2019-02-15T02:59:30.736Z,3.83
2019-02-15T03:02:25.703Z,3.80
2019-02-15T03:05:15.944Z,3.07
2019-02-15T03:08:05.072Z,4.20
2019-02-15T03:10:54.687Z,3.87
2019-02-15T03:13:44.117Z,4.50
2019-02-15T03:16:34.230Z,3.47
2019-02-15T03:19:23.771Z,3.63
2019-02-15T03:22:12.967Z,2.40
2019-02-15T03:25:02.413Z,2.97
2019-02-15T03:27:52.006Z,2.77
2019-02-15T03:30:41.607Z,1.90
2019-02-15T03:33:31.081Z,2.80
2019-02-15T03:36:37.913Z,2.60
2019-02-15T03:39:35.384Z,4.20
2019-02-15T03:42:25.822Z,3.47
2019-02-15T03:45:16.991Z,3.47
2019-02-15T03:48:05.863Z,3.43
2019-02-15T03:50:55.384Z,4.20
2019-02-15T03:53:44.911Z,3.47
2019-02-15T03:56:34.087Z,3.83
2019-02-15T03:59:23.036Z,3.90
2019-02-15T04:02:12.525Z,4.40
2019-02-15T04:05:02.106Z,6.33
2019-02-15T04:07:51.533Z,4.90
2019-02-15T04:10:41.108Z,5.40
2019-02-15T04:13:30.930Z,4.70
2019-02-15T04:16:20.321Z,3.90
2019-02-15T04:19:10.320Z,3.93
2019-02-15T04:21:59.496Z,5.27
2019-02-15T04:24:48.657Z,12.70
2019-02-15T04:27:38.396Z,13.57
2019-02-15T04:30:28.011Z,16.37
2019-02-15T04:33:17.183Z,8.47
2019-02-15T04:36:06.893Z,4.73
2019-02-15T04:38:56.370Z,2.77
2019-02-15T04:41:45.854Z,2.57
2019-02-15T04:44:42.587Z,2.17
2019-02-15T04:47:26.974Z,4.37
2019-02-15T04:50:16.927Z,11.33
2019-02-15T04:53:06.094Z,12.23
2019-02-15T04:55:55.308Z,13.03
2019-02-15T04:58:44.872Z,10.50
2019-02-15T05:01:34.933Z,11.13
2019-02-15T05:04:24.340Z,5.90
2019-02-15T05:07:16.456Z,6.80
2019-02-15T05:10:06.544Z,4.97
2019-02-15T05:12:55.984Z,3.80
2019-02-15T05:15:45.875Z,4.30
2019-02-15T05:18:35.032Z,3.63
2019-02-15T05:21:24.403Z,3.80
2019-02-15T05:24:14.318Z,3.10
2019-02-15T05:27:03.523Z,3.30
2019-02-15T05:29:53.295Z,3.50
2019-02-15T05:32:42.787Z,3.20
2019-02-15T05:35:32.527Z,4.13
2019-02-15T05:38:22.023Z,3.80
2019-02-15T05:41:14.253Z,3.80
2019-02-15T05:44:04.745Z,4.73
2019-02-15T05:46:54.289Z,5.93
2019-02-15T05:49:43.836Z,8.73
2019-02-15T05:52:33.654Z,3.83
2019-02-15T05:55:23.082Z,3.90
2019-02-15T05:58:12.976Z,2.07
2019-02-15T06:01:02.358Z,3.30
2019-02-15T06:03:52.016Z,3.10
2019-02-15T06:06:41.261Z,3.30
2019-02-15T06:09:30.810Z,4.00
2019-02-15T06:12:20.486Z,3.30
2019-02-15T06:15:15.318Z,2.40
2019-02-15T06:18:01.230Z,3.17
2019-02-15T06:20:50.612Z,5.50
2019-02-15T06:23:40.860Z,5.70
2019-02-15T06:26:31.786Z,5.40
2019-02-15T06:29:20.775Z,6.53
2019-02-15T06:32:10.314Z,7.67
2019-02-15T06:34:59.924Z,7.80
2019-02-15T06:37:49.492Z,7.47
2019-02-15T06:40:39.219Z,4.93
2019-02-15T06:43:28.719Z,5.30
2019-02-15T06:46:17.859Z,5.43
2019-02-15T06:49:07.468Z,5.40
2019-02-15T06:51:57.460Z,5.10
2019-02-15T06:54:46.851Z,5.73
2019-02-15T06:57:36.578Z,4.53
2019-02-15T07:00:55.553Z,8.07
2019-02-15T07:04:16.493Z,26.30
2019-02-15T07:07:05.981Z,15.43
2019-02-15T07:09:55.628Z,10.90
2019-02-15T07:12:45.219Z,8.53
2019-02-15T07:15:35.370Z,4.97
2019-02-15T07:18:24.808Z,6.93
2019-02-15T07:21:14.507Z,30.70
2019-02-15T07:24:06.267Z,17.23
2019-02-15T07:26:55.955Z,8.57
2019-02-15T07:29:45.452Z,6.57
2019-02-15T07:32:35.565Z,7.30
2019-02-15T07:35:24.761Z,8.97
2019-02-15T07:38:14.077Z,11.43
2019-02-15T07:41:03.363Z,9.70
2019-02-15T07:43:52.596Z,10.17
2019-02-15T07:46:41.988Z,9.97
2019-02-15T07:49:31.272Z,9.40
2019-02-15T07:52:20.510Z,8.50
2019-02-15T07:55:10.334Z,7.60
2019-02-15T07:58:00.013Z,9.93
2019-02-15T08:00:49.423Z,10.60
2019-02-15T08:03:38.876Z,10.23
2019-02-15T08:06:30.276Z,13.17
2019-02-15T08:09:19.610Z,14.20
2019-02-15T08:12:09.368Z,15.30
2019-02-15T08:14:58.863Z,20.13
2019-02-15T08:17:48.991Z,14.90
2019-02-15T08:20:38.569Z,15.70
2019-02-15T08:23:28.541Z,16.83
2019-02-15T08:26:18.130Z,11.17
2019-02-15T08:29:07.539Z,9.33
2019-02-15T08:31:56.985Z,5.40
2019-02-15T08:34:46.564Z,5.50
2019-02-15T08:37:35.855Z,6.43
2019-02-15T08:40:25.901Z,5.70
2019-02-15T08:43:17.495Z,8.27
2019-02-15T08:49:31.482Z,7.60
2019-02-15T08:52:20.875Z,6.00
2019-02-15T08:55:11.216Z,5.00
2019-02-15T08:58:00.716Z,4.60
2019-02-15T09:00:50.025Z,3.97
2019-02-15T09:03:39.839Z,4.87
2019-02-15T09:06:29.826Z,5.60
2019-02-15T09:09:18.958Z,3.20
2019-02-15T09:12:08.710Z,3.47
2019-02-15T09:14:57.946Z,3.70
2019-02-15T09:17:47.582Z,4.20
2019-02-15T09:20:37.107Z,3.40
2019-02-15T09:23:26.723Z,2.80
2019-02-15T09:26:18.256Z,3.27
2019-02-15T09:29:10.433Z,4.57
2019-02-15T09:31:59.681Z,3.30
2019-02-15T09:34:49.426Z,4.30
2019-02-15T09:37:41.910Z,3.20
2019-02-15T09:40:31.286Z,4.30
2019-02-15T09:43:20.495Z,3.30
2019-02-15T09:46:19.297Z,3.67
2019-02-15T09:49:03.375Z,3.57
2019-02-15T09:51:53.066Z,3.50
2019-02-15T09:54:42.397Z,3.67
2019-02-15T09:57:32.273Z,4.27
2019-02-15T10:00:21.392Z,3.80
2019-02-15T10:03:14.730Z,4.30
2019-02-15T10:06:04.120Z,3.80
2019-02-15T10:08:53.233Z,3.60
2019-02-15T10:11:42.355Z,2.90
2019-02-15T10:14:32.028Z,2.60
2019-02-15T10:17:21.340Z,3.13
2019-02-15T10:20:10.841Z,2.57
2019-02-15T10:23:00.139Z,2.90
2019-02-15T10:25:49.814Z,3.40
2019-02-15T10:28:38.954Z,3.27
2019-02-15T10:31:30.743Z,3.30
2019-02-15T10:34:20.067Z,3.33
2019-02-15T10:37:10.317Z,3.27
2019-02-15T10:39:59.634Z,2.33
2019-02-15T10:42:50.151Z,3.13
2019-02-15T10:45:39.415Z,3.20
2019-02-15T10:48:28.859Z,3.80
2019-02-15T10:51:18.516Z,4.77
2019-02-15T10:54:07.986Z,3.83
2019-02-15T10:56:58.099Z,4.50
2019-02-15T10:59:47.656Z,6.07
2019-02-15T11:02:37.565Z,3.77
2019-02-15T11:05:27.814Z,4.00
2019-02-15T11:08:17.177Z,3.77
2019-02-15T11:11:06.856Z,4.03
2019-02-15T11:13:56.125Z,3.63
2019-02-15T11:16:47.489Z,4.03
2019-02-15T11:19:48.264Z,4.87
2019-02-15T11:22:38.228Z,4.30
2019-02-15T11:25:27.663Z,5.40
2019-02-15T11:28:17.163Z,4.33
2019-02-15T11:31:06.587Z,4.83
2019-02-15T11:33:55.963Z,5.03
2019-02-15T11:36:45.543Z,6.37
2019-02-15T11:39:35.346Z,4.80
2019-02-15T11:42:24.660Z,5.70
2019-02-15T11:45:16.644Z,6.83
2019-02-15T11:48:06.289Z,6.80
2019-02-15T11:50:55.494Z,6.13
2019-02-15T11:53:45.439Z,6.67
2019-02-15T11:56:35.088Z,6.97
2019-02-15T11:59:24.838Z,7.10
2019-02-15T12:02:14.314Z,5.80
2019-02-15T12:05:04.382Z,5.77
2019-02-15T12:07:53.630Z,5.17
2019-02-15T12:10:43.335Z,4.60
2019-02-15T12:13:32.730Z,5.20
2019-02-15T12:16:23.000Z,4.93
2019-02-15T12:19:14.582Z,4.40
2019-02-15T12:22:04.306Z,3.20
2019-02-15T12:24:53.497Z,3.23
2019-02-15T12:27:43.429Z,3.60
2019-02-15T12:30:32.900Z,3.60
2019-02-15T12:33:22.239Z,4.73
2019-02-15T12:36:11.560Z,5.00
2019-02-15T12:39:05.064Z,6.30
2019-02-15T12:41:54.699Z,7.93
2019-02-15T12:44:44.296Z,6.60
2019-02-15T12:47:33.504Z,7.33
2019-02-15T12:50:22.740Z,7.17
2019-02-15T12:53:12.639Z,6.83
2019-02-15T12:56:02.062Z,5.27
2019-02-15T12:58:52.010Z,6.07
2019-02-15T13:01:42.259Z,5.83
2019-02-15T13:04:31.881Z,5.10
2019-02-15T13:07:21.322Z,7.93
2019-02-15T13:10:13.104Z,10.00
2019-02-15T13:13:02.336Z,7.70
2019-02-15T13:15:51.488Z,7.13
2019-02-15T13:18:40.957Z,6.70
2019-02-15T13:21:30.562Z,8.00
2019-02-15T13:24:20.172Z,8.50
2019-02-15T13:27:09.865Z,9.47
2019-02-15T13:29:59.946Z,8.10
2019-02-15T13:32:50.016Z,6.97
2019-02-15T13:35:39.454Z,7.13
2019-02-15T13:38:29.450Z,9.73
2019-02-15T13:41:18.913Z,7.33
2019-02-15T13:44:08.598Z,6.20
2019-02-15T13:46:59.016Z,7.13
2019-02-15T13:49:48.526Z,6.43
2019-02-15T13:52:38.303Z,5.70
2019-02-15T13:55:27.921Z,5.73
2019-02-15T13:58:17.466Z,6.23
2019-02-15T14:01:07.169Z,5.17
2019-02-15T14:03:56.406Z,5.60
2019-02-15T14:06:56.753Z,6.43
2019-02-15T14:09:46.139Z,5.83
2019-02-15T14:12:35.770Z,8.07
2019-02-15T14:15:25.276Z,7.00
2019-02-15T14:18:14.984Z,9.40
2019-02-15T14:21:04.573Z,8.90
2019-02-15T14:23:53.995Z,8.03
2019-02-15T14:26:43.726Z,9.13
2019-02-15T14:29:33.267Z,7.97
2019-02-15T14:32:23.027Z,6.90
2019-02-15T14:35:12.516Z,8.87
2019-02-15T14:38:01.888Z,11.40
2019-02-15T14:40:51.602Z,12.07
2019-02-15T14:43:41.042Z,9.00
2019-02-15T14:46:30.286Z,10.13
2019-02-15T14:49:19.922Z,7.10
2019-02-15T14:52:09.358Z,5.30
2019-02-15T14:54:58.634Z,5.23
2019-02-15T14:57:48.411Z,4.60
2019-02-15T15:00:37.936Z,5.30
2019-02-15T15:03:28.466Z,7.00
2019-02-15T15:06:17.973Z,6.80
2019-02-15T15:09:07.834Z,5.30
2019-02-15T15:11:57.273Z,5.60
2019-02-15T15:14:47.143Z,5.63
2019-02-15T15:17:36.539Z,5.20
2019-02-15T15:20:26.113Z,4.07
2019-02-15T15:23:15.939Z,4.83
2019-02-15T15:26:11.548Z,5.50
2019-02-15T15:28:56.274Z,8.50
2019-02-15T15:31:45.610Z,10.80
2019-02-15T15:34:35.040Z,15.63
2019-02-15T15:37:24.810Z,30.00
2019-02-15T15:40:14.835Z,4.43
2019-02-15T15:43:04.970Z,32.80
2019-02-15T15:45:54.920Z,16.63
2019-02-15T15:48:44.425Z,14.17
2019-02-15T15:51:34.086Z,4.97
2019-02-15T15:54:23.538Z,4.80
2019-02-15T15:57:13.276Z,2.47
2019-02-15T16:00:02.602Z,2.83
2019-02-15T16:02:52.491Z,15.30
2019-02-15T16:05:41.695Z,7.30
2019-02-15T16:08:31.681Z,3.10
2019-02-15T16:11:21.244Z,1.90
2019-02-15T16:14:10.872Z,2.90
2019-02-15T16:17:00.377Z,2.50
2019-02-15T16:19:50.289Z,2.30
2019-02-15T16:22:40.155Z,2.20
2019-02-15T16:25:29.715Z,5.37
2019-02-15T16:28:19.362Z,4.23
2019-02-15T16:31:09.600Z,4.27
2019-02-15T16:33:59.075Z,6.90
2019-02-15T16:36:48.694Z,3.40
2019-02-15T16:39:38.884Z,3.23
2019-02-15T16:42:28.507Z,2.10
2019-02-15T16:45:17.999Z,2.13
2019-02-15T16:48:07.441Z,3.03
2019-02-15T16:50:57.334Z,3.20
2019-02-15T16:53:47.259Z,3.60
2019-02-15T16:56:36.458Z,6.10
2019-02-15T16:59:26.510Z,13.20
2019-02-15T17:02:16.331Z,12.10
2019-02-15T17:05:06.269Z,12.27
2019-02-15T17:07:55.642Z,6.10
2019-02-15T17:10:45.288Z,2.30
2019-02-15T17:13:34.844Z,2.40
2019-02-15T17:16:24.469Z,2.43
2019-02-15T17:19:17.425Z,3.00
2019-02-15T17:22:07.428Z,2.33
2019-02-15T17:24:57.111Z,3.10
2019-02-15T17:27:46.421Z,2.93
2019-02-15T17:30:36.897Z,2.93
2019-02-15T17:33:26.067Z,3.00
2019-02-15T17:36:15.660Z,3.00
2019-02-15T17:39:06.635Z,4.37
2019-02-15T17:41:56.224Z,3.53
2019-02-15T17:44:45.517Z,4.83
2019-02-15T17:47:35.608Z,4.60
2019-02-15T17:50:24.805Z,6.40
2019-02-15T17:53:21.829Z,3.87
2019-02-15T17:56:11.517Z,3.87
2019-02-15T17:59:02.809Z,5.30
2019-02-15T18:01:52.747Z,4.77
2019-02-15T18:04:42.643Z,6.00
2019-02-15T18:07:31.764Z,8.73
2019-02-15T18:10:20.997Z,12.93
2019-02-15T18:13:10.774Z,8.30
2019-02-15T18:16:01.133Z,7.13
2019-02-15T18:18:50.646Z,4.10
2019-02-15T18:21:39.878Z,4.37
2019-02-15T18:24:29.563Z,3.43
2019-02-15T18:27:18.805Z,3.53
2019-02-15T18:30:09.006Z,3.37
2019-02-15T18:32:58.665Z,2.90
2019-02-15T18:35:48.284Z,3.33
2019-02-15T18:38:38.075Z,2.97
2019-02-15T18:41:27.544Z,4.13
2019-02-15T18:44:16.992Z,6.73
2019-02-15T18:47:06.394Z,4.20
2019-02-15T18:49:57.243Z,3.10
2019-02-15T18:52:46.574Z,3.47
2019-02-15T18:55:36.754Z,5.57
2019-02-15T18:58:26.503Z,5.23
2019-02-15T19:01:16.594Z,3.90
2019-02-15T19:04:05.931Z,5.23
2019-02-15T19:06:55.488Z,4.77
2019-02-15T19:09:44.648Z,5.30
2019-02-15T19:12:34.330Z,4.93
2019-02-15T19:15:24.493Z,6.17
2019-02-15T19:18:13.958Z,4.70
2019-02-15T19:21:03.303Z,3.00
2019-02-15T19:23:52.667Z,4.30
2019-02-15T19:26:41.863Z,6.10
2019-02-15T19:29:31.978Z,3.33
2019-02-15T19:32:21.539Z,4.87
2019-02-15T19:35:16.910Z,4.87
2019-02-15T19:38:06.349Z,5.23
2019-02-15T19:40:55.876Z,4.23
2019-02-15T19:43:45.290Z,3.07
2019-02-15T19:46:35.005Z,3.43
2019-02-15T19:49:24.405Z,3.50
2019-02-15T19:52:14.058Z,4.20
2019-02-15T19:55:07.314Z,3.60
2019-02-15T19:57:56.773Z,3.20
2019-02-15T20:00:47.130Z,3.03
2019-02-15T20:03:36.626Z,3.00
2019-02-15T20:06:25.823Z,4.33
2019-02-15T20:09:18.869Z,3.43
2019-02-15T20:12:09.022Z,4.43
2019-02-15T20:14:58.568Z,4.83
2019-02-15T20:17:48.285Z,5.50
2019-02-15T20:20:37.752Z,4.63
2019-02-15T20:23:27.378Z,4.93
2019-02-15T20:26:16.584Z,4.07
2019-02-15T20:29:06.346Z,3.20
2019-02-15T20:31:55.973Z,2.80
2019-02-15T20:34:45.667Z,4.00
2019-02-15T20:37:34.940Z,4.23
2019-02-15T20:40:24.314Z,4.50
2019-02-15T20:43:16.316Z,3.80
2019-02-15T20:46:05.742Z,3.23
2019-02-15T20:49:04.364Z,4.13
2019-02-15T20:51:45.763Z,4.53
2019-02-15T20:54:35.647Z,5.30
2019-02-15T20:57:25.250Z,4.00
2019-02-15T21:00:17.965Z,3.60
2019-02-15T21:03:08.732Z,3.27
2019-02-15T21:05:58.008Z,3.50
2019-02-15T21:08:47.635Z,3.83
2019-02-15T21:11:37.115Z,2.77
2019-02-15T21:14:26.845Z,3.00
2019-02-15T21:17:17.150Z,2.80
2019-02-15T21:20:08.358Z,2.83
2019-02-15T21:22:57.939Z,3.43
2019-02-15T21:25:47.385Z,3.60
2019-02-15T21:28:36.555Z,3.30
2019-02-15T21:31:26.021Z,2.77
2019-02-15T21:34:15.709Z,3.03
2019-02-15T21:37:05.286Z,3.17
2019-02-15T21:39:55.288Z,3.80
2019-02-15T21:42:44.662Z,3.80
2019-02-15T21:45:34.081Z,3.00
2019-02-15T21:48:23.519Z,3.87
2019-02-15T21:51:16.803Z,4.77
2019-02-15T21:54:06.419Z,3.50
2019-02-15T21:56:56.039Z,3.20
2019-02-15T21:59:45.232Z,3.63
2019-02-15T22:02:35.249Z,5.20
2019-02-15T22:05:25.623Z,4.00
2019-02-15T22:08:14.859Z,4.23
2019-02-15T22:11:04.013Z,4.07
2019-02-15T22:13:53.439Z,3.47
2019-02-15T22:16:43.478Z,3.00
2019-02-15T22:19:32.898Z,4.83
2019-02-15T22:22:22.142Z,3.57
2019-02-15T22:25:15.993Z,2.60
2019-02-15T22:28:05.688Z,2.40
2019-02-15T22:30:55.021Z,2.67
2019-02-15T22:33:44.427Z,3.90
2019-02-15T22:36:33.684Z,5.50
2019-02-15T22:39:22.767Z,4.23
2019-02-15T22:42:12.367Z,3.80
2019-02-15T22:45:01.904Z,4.20
2019-02-15T22:47:52.074Z,2.70
2019-02-15T22:50:41.419Z,2.07
2019-02-15T22:53:31.108Z,2.10
2019-02-15T22:56:20.353Z,2.10
2019-02-15T22:59:10.276Z,2.67
2019-02-15T23:02:00.266Z,1.80
2019-02-15T23:04:49.818Z,2.47
2019-02-15T23:07:40.155Z,3.87
2019-02-15T23:10:29.829Z,3.33
2019-02-15T23:13:19.297Z,2.20
2019-02-15T23:16:08.901Z,2.00
2019-02-15T23:18:58.289Z,3.90
2019-02-15T23:21:48.077Z,4.40
2019-02-15T23:24:37.284Z,2.63
2019-02-15T23:27:27.396Z,2.53
2019-02-15T23:30:17.018Z,2.63
2019-02-15T23:33:06.206Z,2.53
2019-02-15T23:35:55.894Z,2.83
2019-02-15T23:38:45.068Z,2.30
2019-02-15T23:41:34.669Z,2.07
2019-02-15T23:44:24.117Z,3.07
2019-02-15T23:47:13.609Z,3.80
2019-02-15T23:50:03.401Z,3.50
2019-02-15T23:52:52.811Z,3.10
2019-02-15T23:55:42.424Z,3.03
2019-02-15T23:58:31.966Z,3.87
